Time;durP1;ratioP1;P1;durP2;ratioP2;P2;SDS_P1;SDS_P2;PMS_P1;PMS_P2;Temp;Humidity;BMP_temperature;BMP_pressure;BME280_temperature;BME280_humidity;BME280_pressure;Samples;Min_cycle;Max_cycle;Signal;HPM_P1;HPM_P2
2021/12/12 00:01:53;;;;;;;;;;;;;;;2.12;59.29;99683.94;4428323;32;20348;-89
2021/12/12 00:04:19;;;;;;;;;;;;;;;2.13;59.30;99683.13;4428121;32;19988;-88
2021/12/12 00:06:53;;;;;;;;;;;;;;;2.10;59.29;99693.38;4428322;32;20404;-88
2021/12/12 00:09:23;;;;;;;;;;;;;;;2.19;59.29;99695.09;4428423;32;20053;-88
2021/12/12 00:11:48;;;;;;;;;;;;;;;1.97;59.28;99707.06;4427906;32;20314;-88
2021/12/12 00:14:19;;;;;;;;;;;;;;;1.94;59.29;99703.63;4427141;32;33378;-88
2021/12/12 00:16:45;;;;;;;;;;;;;;;1.77;59.28;99712.13;4428358;32;20011;-88
2021/12/12 00:19:10;;;;;;;;;;;;;;;1.89;59.27;99708.72;4428346;32;20326;-89
2021/12/12 00:21:36;;;;;;;;;;;;;;;1.85;59.28;99705.31;4427886;32;19985;-88
2021/12/12 00:24:01;;;;;;;;;;;;;;;1.97;59.28;99717.31;4426784;32;20248;-87
2021/12/12 00:26:26;;;;;;;;;;;;;;;1.84;59.28;99725.81;4427732;32;19981;-87
2021/12/12 00:28:51;;;;;;;;;;;;;;;2.03;59.28;99726.75;4428097;32;19996;-88
2021/12/12 00:31:17;;;;;;;;;;;;;;;1.98;59.29;99731.88;4428026;32;19990;-88
2021/12/12 00:33:46;;;;;;;;;;;;;;;1.97;59.28;99725.03;4427962;32;19982;-87
2021/12/12 00:36:16;;;;;;;;;;;;;;;2.04;59.29;99723.31;4428021;32;20028;-84
2021/12/12 00:38:41;;;;;;;;;;;;;;;2.01;59.29;99723.31;4427976;32;20068;-87
2021/12/12 00:41:07;;;;;;;;;;;;;;;1.88;59.27;99722.41;4427475;32;23349;-89
2021/12/12 00:43:34;;;;;;;;;;;;;;;1.91;59.27;99725.00;4427967;32;19953;-88
2021/12/12 00:45:59;;;;;;;;;;;;;;;1.85;59.28;99709.56;4427969;32;20057;-87
2021/12/12 00:48:25;;;;;;;;;;;;;;;1.98;59.29;99706.19;4427945;32;20273;-88
2021/12/12 00:50:50;;;;;;;;;;;;;;;2.17;59.30;99708.81;4427529;32;20299;-86
2021/12/12 00:53:15;;;;;;;;;;;;;;;1.92;59.29;99726.72;4427823;32;19993;-88
2021/12/12 00:55:41;;;;;;;;;;;;;;;1.73;59.27;99704.44;4427986;32;20024;-87
2021/12/12 00:58:07;;;;;;;;;;;;;;;1.68;59.27;99713.81;4427899;32;19996;-88
2021/12/12 01:00:36;;;;;;;;;;;;;;;1.81;59.28;99713.00;4427999;32;20055;-87
2021/12/12 01:03:02;;;;;;;;;;;;;;;1.77;59.28;99714.69;4428188;32;19986;-88
2021/12/12 01:05:27;;;;;;;;;;;;;;;1.80;59.28;99716.41;4428042;32;20007;-88
2021/12/12 01:07:52;;;;;;;;;;;;;;;1.68;59.26;99716.41;4427599;32;19982;-87
2021/12/12 01:10:23;;;;;;;;;;;;;;;1.76;59.27;99725.81;4427778;32;19985;-88
2021/12/12 01:12:49;;;;;;;;;;;;;;;1.75;59.27;99733.50;4440584;32;20004;-89
2021/12/12 01:15:14;;;;;;;;;;;;;;;1.79;59.28;99738.66;4427175;32;23043;-89
2021/12/12 01:17:41;;;;;;;;;;;;;;;1.61;59.26;99740.28;4440420;32;20004;-89
2021/12/12 01:20:11;;;;;;;;;;;;;;;1.62;59.26;99742.87;4428055;32;20053;-89
2021/12/12 01:22:37;;;;;;;;;;;;;;;1.65;59.26;99745.44;4427676;32;19997;-87
2021/12/12 01:25:13;;;;;;;;;;;;;;;1.70;59.27;99748.03;4428091;32;20012;-88
2021/12/12 01:27:39;;;;;;;;;;;;;;;1.68;59.27;99750.59;4427858;32;19978;-87
2021/12/12 01:30:05;;;;;;;;;;;;;;;1.89;59.27;99744.66;4427743;32;20013;-88
2021/12/12 01:32:33;;;;;;;;;;;;;;;1.82;59.27;99764.31;4427844;32;19989;-87
2021/12/12 01:34:58;;;;;;;;;;;;;;;1.67;59.27;99763.44;4427668;32;20005;-88
2021/12/12 01:39:54;;;;;;;;;;;;;;;1.76;59.27;99753.19;4440539;32;19986;-88
2021/12/12 01:42:21;;;;;;;;;;;;;;;1.71;59.27;99753.19;4427481;32;20039;-88
2021/12/12 01:44:48;;;;;;;;;;;;;;;1.82;59.27;99760.91;4427438;32;19993;-88
2021/12/12 01:47:21;;;;;;;;;;;;;;;1.71;59.27;99766.00;4427282;32;20035;-86
2021/12/12 01:49:47;;;;;;;;;;;;;;;1.68;59.27;99772.84;4427665;32;19990;-87
2021/12/12 01:52:14;;;;;;;;;;;;;;;1.60;59.26;99770.22;4427312;32;19990;-88
2021/12/12 01:54:44;;;;;;;;;;;;;;;1.73;59.27;99772.00;4427251;32;19997;-88
2021/12/12 01:57:11;;;;;;;;;;;;;;;1.70;59.27;99783.97;4427156;32;19989;-88
2021/12/12 01:59:37;;;;;;;;;;;;;;;1.67;59.27;99783.97;4426685;32;19989;-87
2021/12/12 02:02:10;;;;;;;;;;;;;;;1.81;59.27;99779.72;4427446;32;19981;-87
2021/12/12 02:04:36;;;;;;;;;;;;;;;1.71;59.27;99777.97;4427391;32;19994;-87
2021/12/12 02:07:01;;;;;;;;;;;;;;;1.62;59.26;99775.34;4427038;32;19969;-87
2021/12/12 02:09:26;;;;;;;;;;;;;;;1.73;59.27;99773.72;4426937;32;20031;-86
2021/12/12 02:11:52;;;;;;;;;;;;;;;1.56;59.26;99772.78;4426875;32;22476;-87
2021/12/12 02:14:18;;;;;;;;;;;;;;;1.61;59.26;99766.81;4440205;32;20347;-87
2021/12/12 02:16:45;;;;;;;;;;;;;;;1.58;59.26;99761.66;4427296;32;19995;-86
2021/12/12 02:19:10;;;;;;;;;;;;;;;1.72;59.27;99754.03;4427337;32;20040;-86
2021/12/12 02:21:49;;;;;;;;;;;;;;;1.60;59.26;99747.13;4426848;32;19993;-87
2021/12/12 02:35:02;;;;;;;;;;;;;;;1.82;59.27;99748.06;4440025;32;20009;-87
2021/12/12 02:35:23;;;;;;;;;;;;;;;1.64;59.27;99742.87;4439930;32;20026;-86
2021/12/12 02:37:49;;;;;;;;;;;;;;;1.70;59.27;99737.78;4439892;32;20029;-86
2021/12/12 02:40:18;;;;;;;;;;;;;;;1.57;59.26;99736.00;4426564;32;20019;-87
2021/12/12 02:42:43;;;;;;;;;;;;;;;1.64;59.26;99737.72;4426528;32;20043;-86
2021/12/12 02:45:09;;;;;;;;;;;;;;;1.82;59.27;99736.09;4428504;32;19997;-87
2021/12/12 02:47:35;;;;;;;;;;;;;;;1.83;59.28;99730.09;4431129;32;20046;-87
2021/12/12 02:50:13;;;;;;;;;;;;;;;1.67;59.27;99737.78;4431214;32;19981;-88
2021/12/12 02:52:39;;;;;;;;;;;;;;;1.68;59.27;99731.78;4431273;32;20011;-87
2021/12/12 02:55:25;;;;;;;;;;;;;;;1.88;59.28;99737.81;4431089;32;20297;-84
2021/12/12 02:57:54;;;;;;;;;;;;;;;1.92;59.28;99742.13;4431236;32;20077;-86
2021/12/12 03:00:20;;;;;;;;;;;;;;;2.01;59.29;99754.12;4430446;32;19989;-84
2021/12/12 03:02:46;;;;;;;;;;;;;;;1.92;59.29;99757.53;4430374;32;20542;-87
2021/12/12 03:05:12;;;;;;;;;;;;;;;1.94;59.28;99752.41;4431102;32;20354;-87
2021/12/12 03:07:37;;;;;;;;;;;;;;;1.97;59.28;99755.81;4431142;32;20298;-86
2021/12/12 03:10:03;;;;;;;;;;;;;;;2.07;59.29;99756.69;4430749;32;20177;-88
2021/12/12 03:12:30;;;;;;;;;;;;;;;1.93;59.28;99760.94;4431073;32;19985;-88
2021/12/12 03:14:56;;;;;;;;;;;;;;;1.61;59.26;99758.25;4431538;32;19996;-88
2021/12/12 03:17:22;;;;;;;;;;;;;;;1.68;59.26;99760.88;4431140;32;20018;-88
2021/12/12 03:19:48;;;;;;;;;;;;;;;1.66;59.26;99770.28;4431260;32;19977;-87
2021/12/12 03:22:13;;;;;;;;;;;;;;;1.61;59.26;99765.94;4431118;32;20595;-88
2021/12/12 03:24:39;;;;;;;;;;;;;;;1.72;59.27;99762.59;4430819;32;20023;-86
2021/12/12 03:27:04;;;;;;;;;;;;;;;1.89;59.27;99756.63;4430522;32;19988;-88
2021/12/12 03:29:30;;;;;;;;;;;;;;;1.85;59.28;99766.91;4430594;32;20023;-86
2021/12/12 03:31:57;;;;;;;;;;;;;;;1.68;59.26;99767.72;4431145;32;20294;-86
2021/12/12 03:34:23;;;;;;;;;;;;;;;1.72;59.27;99777.12;4431256;32;20012;-86
2021/12/12 03:36:48;;;;;;;;;;;;;;;1.54;59.26;99777.91;4430808;32;19984;-86
2021/12/12 03:39:15;;;;;;;;;;;;;;;1.57;59.26;99783.03;4430848;32;19981;-87
2021/12/12 03:41:40;;;;;;;;;;;;;;;1.65;59.26;99783.06;4429764;32;19985;-86
2021/12/12 03:44:08;;;;;;;;;;;;;;;1.60;59.26;99792.44;4430261;32;20056;-86
2021/12/12 03:46:34;;;;;;;;;;;;;;;1.59;59.26;99794.16;4430681;32;19969;-85
2021/12/12 03:48:59;;;;;;;;;;;;;;;1.57;59.26;99790.72;4430801;32;20411;-87
2021/12/12 03:51:25;;;;;;;;;;;;;;;1.59;59.26;99799.28;4430605;32;20358;-86
2021/12/12 03:53:50;;;;;;;;;;;;;;;1.53;59.26;99799.28;4430652;32;20011;-86
2021/12/12 03:56:15;;;;;;;;;;;;;;;1.41;59.26;99796.63;4430600;32;20490;-86
2021/12/12 03:58:41;;;;;;;;;;;;;;;1.41;59.26;99797.47;4430643;32;19993;-86
2021/12/12 04:01:06;;;;;;;;;;;;;;;1.47;59.25;99809.50;4431064;32;20314;-86
2021/12/12 04:03:31;;;;;;;;;;;;;;;1.62;59.26;99811.28;4443474;32;20023;-87
2021/12/12 04:05:58;;;;;;;;;;;;;;;1.63;59.26;99813.00;4430462;32;24445;-87
2021/12/12 04:08:34;;;;;;;;;;;;;;;1.53;59.25;99822.34;4430761;32;19996;-84
2021/12/12 04:10:59;;;;;;;;;;;;;;;1.41;59.25;99822.28;4430712;32;20027;-86
2021/12/12 04:13:24;;;;;;;;;;;;;;;1.37;59.24;99821.41;4431024;32;19997;-89
2021/12/12 04:15:50;;;;;;;;;;;;;;;1.31;59.24;99818.81;4430155;32;25702;-89
2021/12/12 04:18:19;;;;;;;;;;;;;;;1.45;59.25;99835.16;4443602;32;20257;-89
2021/12/12 04:20:44;;;;;;;;;;;;;;;1.41;59.26;99822.28;4430583;32;20042;-89
2021/12/12 04:23:16;;;;;;;;;;;;;;;1.49;59.26;99828.31;4430442;32;23830;-87
2021/12/12 04:25:41;;;;;;;;;;;;;;;1.36;59.25;99834.22;4443528;32;20040;-89
2021/12/12 04:28:06;;;;;;;;;;;;;;;1.41;59.26;99832.53;4430645;32;20038;-89
2021/12/12 04:30:32;;;;;;;;;;;;;;;1.34;59.25;99841.03;4430219;32;22985;-89
2021/12/12 04:32:57;;;;;;;;;;;;;;;1.51;59.25;99845.44;4430064;32;27763;-88
2021/12/12 04:35:25;;;;;;;;;;;;;;;1.39;59.25;99835.09;4430231;32;27455;-89
2021/12/12 04:37:51;;;;;;;;;;;;;;;1.44;59.25;99836.00;4430562;32;19977;-86
2021/12/12 04:40:16;;;;;;;;;;;;;;;1.44;59.25;99842.84;4430334;32;19989;-86
2021/12/12 04:42:42;;;;;;;;;;;;;;;1.44;59.25;99843.69;4430324;32;20274;-86
2021/12/12 04:45:14;;;;;;;;;;;;;;;1.41;59.26;99847.91;4442960;32;20026;-85
2021/12/12 04:50:53;;;;;;;;;;;;;;;1.26;59.25;99863.22;4457064;32;20035;-85
2021/12/12 04:53:26;;;;;;;;;;;;;;;1.50;59.26;99846.28;4430182;32;19979;-86
2021/12/12 04:55:54;;;;;;;;;;;;;;;1.59;59.26;99848.03;4429957;32;20345;-86
2021/12/12 04:58:32;;;;;;;;;;;;;;;1.50;59.25;99856.53;4430154;32;20019;-86
2021/12/12 05:00:58;;;;;;;;;;;;;;;1.53;59.26;99853.12;4430426;32;19989;-85
2021/12/12 05:03:33;;;;;;;;;;;;;;;1.52;59.26;99851.44;4442899;32;19989;-86
2021/12/12 05:06:03;;;;;;;;;;;;;;;1.53;59.26;99859.13;4430300;32;19977;-85
2021/12/12 05:08:36;;;;;;;;;;;;;;;1.41;59.26;99861.59;4429249;32;19981;-84
2021/12/12 05:11:05;;;;;;;;;;;;;;;1.31;59.24;99854.72;4442843;32;19981;-87
2021/12/12 05:13:32;;;;;;;;;;;;;;;1.40;59.25;99847.06;4430530;32;19980;-87
2021/12/12 05:16:17;;;;;;;;;;;;;;;1.54;59.26;99849.72;4430223;32;19982;-87
2021/12/12 05:18:49;;;;;;;;;;;;;;;1.57;59.26;99854.00;4430093;32;20015;-87
2021/12/12 05:21:15;;;;;;;;;;;;;;;1.37;59.25;99853.88;4430766;32;19997;-88
2021/12/12 05:23:41;;;;;;;;;;;;;;;1.66;59.27;99848.94;4430182;32;20013;-84
2021/12/12 05:26:07;;;;;;;;;;;;;;;1.67;59.27;99861.78;4430214;32;19976;-87
2021/12/12 05:28:33;;;;;;;;;;;;;;;1.61;59.26;99877.13;4430171;32;19997;-88
2021/12/12 05:31:00;;;;;;;;;;;;;;;1.52;59.26;99847.16;4430027;32;20004;-88
2021/12/12 05:33:25;;;;;;;;;;;;;;;1.78;59.28;99855.00;4430361;32;20003;-87
2021/12/12 05:35:50;;;;;;;;;;;;;;;1.79;59.28;99854.13;4429720;32;29506;-88
2021/12/12 05:38:15;;;;;;;;;;;;;;;1.79;59.28;99861.84;4430309;32;20008;-88
2021/12/12 05:40:42;;;;;;;;;;;;;;;1.75;59.27;99869.53;4429978;32;19985;-88
2021/12/12 05:43:07;;;;;;;;;;;;;;;1.67;59.27;99853.22;4429953;32;19957;-88
2021/12/12 05:45:33;;;;;;;;;;;;;;;1.73;59.27;99859.25;4430042;32;20004;-87
2021/12/12 05:47:58;;;;;;;;;;;;;;;1.65;59.27;99863.47;4429844;32;20003;-86
2021/12/12 05:50:43;;;;;;;;;;;;;;;1.72;59.27;99861.81;4443044;32;20042;-87
2021/12/12 05:53:08;;;;;;;;;;;;;;;1.71;59.27;99858.38;4442709;32;20032;-85
2021/12/12 05:55:34;;;;;;;;;;;;;;;1.57;59.26;99854.00;4430021;32;19985;-88
2021/12/12 05:57:59;;;;;;;;;;;;;;;1.68;59.27;99857.50;4429948;32;20085;-87
2021/12/12 06:00:29;;;;;;;;;;;;;;;1.71;59.27;99862.66;4430080;32;20001;-86
2021/12/12 06:02:54;;;;;;;;;;;;;;;1.56;59.26;99858.28;4429750;32;19996;-86
2021/12/12 06:05:20;;;;;;;;;;;;;;;1.54;59.25;99868.53;4429950;32;20019;-86
2021/12/12 06:07:45;;;;;;;;;;;;;;;1.67;59.26;99860.94;4429540;32;20317;-85
2021/12/12 06:10:11;;;;;;;;;;;;;;;1.67;59.26;99872.06;4429773;32;20272;-86
2021/12/12 06:12:36;;;;;;;;;;;;;;;1.85;59.28;99858.44;4429841;32;19993;-85
2021/12/12 06:15:08;;;;;;;;;;;;;;;1.57;59.26;99870.25;4429622;32;19981;-85
2021/12/12 06:17:34;;;;;;;;;;;;;;;1.66;59.27;99854.94;4429586;32;19985;-85
2021/12/12 06:19:59;;;;;;;;;;;;;;;1.70;59.27;99868.66;4429171;32;20016;-86
2021/12/12 06:22:25;;;;;;;;;;;;;;;1.77;59.28;99870.38;4442223;32;20017;-87
2021/12/12 06:24:51;;;;;;;;;;;;;;;1.56;59.27;99872.81;4428902;32;29297;-85
2021/12/12 06:27:17;;;;;;;;;;;;;;;1.28;59.25;99875.19;4429599;32;19976;-89
2021/12/12 06:29:42;;;;;;;;;;;;;;;1.21;59.24;99876.88;4429979;32;20008;-89
2021/12/12 06:32:07;;;;;;;;;;;;;;;1.23;59.24;99882.00;4429708;32;20011;-89
2021/12/12 06:34:33;;;;;;;;;;;;;;;1.40;59.25;99884.69;4429554;32;20012;-89
2021/12/12 06:36:58;;;;;;;;;;;;;;;1.40;59.25;99889.81;4429539;32;20027;-88
2021/12/12 06:39:23;;;;;;;;;;;;;;;1.20;59.24;99898.22;4429179;32;29676;-88
2021/12/12 06:41:49;;;;;;;;;;;;;;;1.29;59.24;99902.56;4429242;32;19996;-85
2021/12/12 06:44:14;;;;;;;;;;;;;;;1.40;59.25;99900.06;4429051;32;19991;-86
2021/12/12 06:46:40;;;;;;;;;;;;;;;1.48;59.25;99908.69;4428866;32;20015;-86
2021/12/12 06:49:05;;;;;;;;;;;;;;;1.67;59.27;99897.72;4429139;32;19989;-86
2021/12/12 06:51:32;;;;;;;;;;;;;;;1.80;59.28;99904.63;4429142;32;19985;-85
2021/12/12 06:53:57;;;;;;;;;;;;;;;1.78;59.27;99902.87;4429176;32;19977;-84
2021/12/12 06:56:22;;;;;;;;;;;;;;;1.65;59.27;99901.09;4428990;32;20348;-86
2021/12/12 06:58:48;;;;;;;;;;;;;;;1.78;59.28;99897.75;4428784;32;20043;-86
2021/12/12 07:01:16;;;;;;;;;;;;;;;1.84;59.28;99900.34;4428618;32;20391;-86
2021/12/12 07:03:41;;;;;;;;;;;;;;;1.91;59.28;99898.69;4428577;32;19981;-86
2021/12/12 07:06:06;;;;;;;;;;;;;;;1.80;59.28;99908.87;4428391;32;20007;-86
2021/12/12 07:08:32;;;;;;;;;;;;;;;1.91;59.28;99912.41;4440898;32;20038;-85
2021/12/12 07:10:57;;;;;;;;;;;;;;;1.85;59.28;99910.63;4428808;32;19993;-87
2021/12/12 07:13:22;;;;;;;;;;;;;;;1.94;59.28;99917.53;4428468;32;23820;-86
2021/12/12 07:15:53;;;;;;;;;;;;;;;1.82;59.27;99905.47;4428683;32;19973;-85
2021/12/12 07:18:19;;;;;;;;;;;;;;;1.85;59.28;99917.47;4428660;32;20655;-88
2021/12/12 07:20:46;;;;;;;;;;;;;;;1.83;59.27;99908.91;4428990;32;19965;-88
2021/12/12 07:23:12;;;;;;;;;;;;;;;1.79;59.28;99910.59;4442059;32;20033;-89
2021/12/12 07:25:38;;;;;;;;;;;;;;;1.84;59.28;99910.63;4428760;32;20044;-89
2021/12/12 07:28:03;;;;;;;;;;;;;;;1.93;59.28;99903.00;4428653;32;20012;-88
2021/12/12 07:30:29;;;;;;;;;;;;;;;1.91;59.27;99907.25;4428727;32;20001;-88
2021/12/12 07:32:54;;;;;;;;;;;;;;;2.05;59.29;99902.19;4430489;32;19976;-87
2021/12/12 07:35:19;;;;;;;;;;;;;;;2.02;59.29;99913.28;4431098;32;19997;-88
2021/12/12 07:37:45;;;;;;;;;;;;;;;1.99;59.29;99905.59;4430670;32;20375;-87
2021/12/12 07:40:10;;;;;;;;;;;;;;;1.81;59.27;99897.78;4431056;32;19989;-87
2021/12/12 07:42:35;;;;;;;;;;;;;;;1.91;59.27;99898.69;4430903;32;20009;-87
2021/12/12 07:45:01;;;;;;;;;;;;;;;1.76;59.26;99904.59;4430942;32;20000;-88
2021/12/12 07:47:28;;;;;;;;;;;;;;;1.71;59.27;99913.97;4430835;32;20005;-88
2021/12/12 07:49:54;;;;;;;;;;;;;;;1.96;59.28;99908.13;4431121;32;20015;-87
2021/12/12 07:52:24;;;;;;;;;;;;;;;1.83;59.27;99903.78;4443766;32;19989;-88
2021/12/12 07:54:49;;;;;;;;;;;;;;;1.98;59.29;99914.12;4443450;32;19991;-88
2021/12/12 07:57:14;;;;;;;;;;;;;;;2.02;59.29;99913.28;4430728;32;20001;-87
2021/12/12 07:59:40;;;;;;;;;;;;;;;2.08;59.29;99923.59;4430747;32;19997;-85
2021/12/12 08:02:05;;;;;;;;;;;;;;;2.13;59.29;99915.94;4455787;32;20000;-88
2021/12/12 08:04:30;;;;;;;;;;;;;;;2.14;59.29;99905.66;4443243;32;19995;-85
2021/12/12 08:06:56;;;;;;;;;;;;;;;2.13;59.30;99914.22;4430668;32;20058;-86
2021/12/12 08:09:21;;;;;;;;;;;;;;;2.14;59.30;99917.66;4430670;32;20001;-89
2021/12/12 08:11:46;;;;;;;;;;;;;;;2.07;59.29;99911.59;4430581;32;19969;-88
2021/12/12 08:14:13;;;;;;;;;;;;;;;2.10;59.29;99915.88;4430388;32;20005;-87
2021/12/12 08:16:38;;;;;;;;;;;;;;;2.32;59.30;99912.56;4430119;32;20001;-87
2021/12/12 08:19:03;;;;;;;;;;;;;;;2.27;59.29;99923.69;4430561;32;20024;-89
2021/12/12 08:21:33;;;;;;;;;;;;;;;2.40;59.30;99922.88;4430463;32;19982;-88
2021/12/12 08:23:59;;;;;;;;;;;;;;;2.41;59.30;99909.19;4431035;32;19957;-87
2021/12/12 08:26:24;;;;;;;;;;;;;;;2.46;59.31;99938.31;4430171;32;19993;-88
2021/12/12 08:28:49;;;;;;;;;;;;;;;2.38;59.31;99940.87;4429820;32;22522;-88
2021/12/12 08:31:16;;;;;;;;;;;;;;;2.58;59.33;99932.34;4430048;32;22465;-88
2021/12/12 08:33:41;;;;;;;;;;;;;;;2.82;59.33;99940.13;4430661;32;19996;-87
2021/12/12 08:36:06;;;;;;;;;;;;;;;2.37;59.31;99938.28;4429863;32;22244;-88
2021/12/12 08:38:31;;;;;;;;;;;;;;;2.52;59.31;99943.47;4430443;32;20011;-87
2021/12/12 08:40:58;;;;;;;;;;;;;;;2.51;59.32;99936.62;4429759;32;20052;-88
2021/12/12 08:43:23;;;;;;;;;;;;;;;2.61;59.32;99946.09;4428944;32;20009;-88
2021/12/12 08:45:50;;;;;;;;;;;;;;;2.77;59.33;99939.25;4430274;32;20307;-87
2021/12/12 08:48:16;;;;;;;;;;;;;;;2.76;59.33;99935.81;4430775;32;20056;-88
2021/12/12 08:50:42;;;;;;;;;;;;;;;2.59;59.32;99929.78;4442318;32;19996;-88
2021/12/12 08:53:07;;;;;;;;;;;;;;;2.76;59.33;99929.84;4429985;32;20011;-88
2021/12/12 08:55:36;;;;;;;;;;;;;;;2.90;59.34;99930.72;4430224;32;20001;-88
2021/12/12 08:58:14;;;;;;;;;;;;;;;2.85;59.33;99937.59;4430568;32;19997;-87
2021/12/12 09:00:49;;;;;;;;;;;;;;;3.02;59.35;99928.16;4431574;32;20077;-85
2021/12/12 09:03:15;;;;;;;;;;;;;;;3.01;59.34;99938.44;4443072;32;19954;-89
2021/12/12 09:05:41;;;;;;;;;;;;;;;2.99;59.34;99935.03;4430354;32;19989;-90
2021/12/12 09:08:09;;;;;;;;;;;;;;;2.61;59.32;99938.38;4430485;32;19997;-88
2021/12/12 09:10:38;;;;;;;;;;;;;;;2.82;59.33;99927.25;4430250;32;19995;-90
2021/12/12 09:13:17;;;;;;;;;;;;;;;3.07;59.34;99928.16;4443631;32;19993;-93
2021/12/12 09:15:44;;;;;;;;;;;;;;;3.07;59.34;99930.72;4431736;32;19993;-92
2021/12/12 09:18:29;;;;;;;;;;;;;;;3.14;59.35;99927.34;4432993;32;20638;-94
2021/12/12 09:21:26;;;;;;;;;;;;;;;3.10;59.35;99920.47;4441342;32;19960;-94
2021/12/12 09:24:16;;;;;;;;;;;;;;;3.02;59.34;99914.44;4443684;32;19977;-93
2021/12/12 09:26:43;;;;;;;;;;;;;;;3.15;59.35;99917.91;4441461;32;20007;-90
2021/12/12 09:29:29;;;;;;;;;;;;;;;3.13;59.35;99910.19;4430496;32;20376;-92
2021/12/12 09:32:02;;;;;;;;;;;;;;;3.12;59.35;99933.34;4430472;32;20273;-90
2021/12/12 09:34:30;;;;;;;;;;;;;;;3.13;59.35;99904.19;4430782;32;20571;-88
2021/12/12 09:36:57;;;;;;;;;;;;;;;3.23;59.35;99906.75;4442650;32;20442;-91
2021/12/12 09:39:27;;;;;;;;;;;;;;;3.27;59.36;99916.19;4430166;32;19997;-90
2021/12/12 09:42:01;;;;;;;;;;;;;;;3.41;59.37;99910.19;4429440;32;19992;-89
2021/12/12 09:44:29;;;;;;;;;;;;;;;3.45;59.36;99904.16;4442984;32;19981;-90
2021/12/12 09:52:46;;;;;;;;;;;;;;;3.52;59.37;99906.72;4444888;32;19991;-90
2021/12/12 09:55:15;;;;;;;;;;;;;;;3.52;59.37;99896.44;4442343;32;20001;-91
2021/12/12 09:57:55;;;;;;;;;;;;;;;3.51;59.37;99893.87;4429931;32;20673;-91
2021/12/12 10:00:26;;;;;;;;;;;;;;;3.72;59.38;99905.84;4430083;32;19976;-91
2021/12/12 10:02:51;;;;;;;;;;;;;;;3.94;59.40;99899.78;4429971;32;19980;-90
2021/12/12 10:05:25;;;;;;;;;;;;;;;4.12;59.40;99911.75;4456786;32;19977;-91
2021/12/12 10:07:58;;;;;;;;;;;;;;;4.03;59.40;99904.06;4442608;32;20016;-90
2021/12/12 10:10:25;;;;;;;;;;;;;;;4.03;59.40;99912.66;4429584;32;20365;-91
2021/12/12 10:13:02;;;;;;;;;;;;;;;4.09;59.40;99907.47;4442471;32;20033;-90
2021/12/12 10:15:27;;;;;;;;;;;;;;;4.27;59.42;99920.31;4429836;32;20001;-90
2021/12/12 10:18:08;;;;;;;;;;;;;;;3.99;59.40;99898.06;4429600;32;20001;-91
2021/12/12 10:20:35;;;;;;;;;;;;;;;4.01;59.40;99915.22;4430225;32;19989;-89
2021/12/12 10:23:09;;;;;;;;;;;;;;;4.01;59.40;99916.94;4430579;32;19981;-90
2021/12/12 10:25:34;;;;;;;;;;;;;;;4.01;59.40;99915.22;4442948;32;20550;-93
2021/12/12 10:28:20;;;;;;;;;;;;;;;3.93;59.39;99904.09;4442111;32;20007;-90
2021/12/12 10:30:53;;;;;;;;;;;;;;;4.12;59.40;99909.19;4419356;32;19997;-90
2021/12/12 10:33:28;;;;;;;;;;;;;;;4.12;59.40;99912.63;4430744;32;20033;-93
2021/12/12 10:36:07;;;;;;;;;;;;;;;4.08;59.40;99904.91;4430499;32;19987;-89
2021/12/12 10:38:41;;;;;;;;;;;;;;;4.24;59.41;99903.97;4430977;32;19977;-86
2021/12/12 10:41:09;;;;;;;;;;;;;;;4.37;59.42;99910.81;4442019;32;19978;-87
2021/12/12 10:43:54;;;;;;;;;;;;;;;4.27;59.42;99910.00;4428935;32;19969;-89
2021/12/12 10:46:21;;;;;;;;;;;;;;;4.20;59.41;99908.28;4441329;32;20314;-89
2021/12/12 10:48:53;;;;;;;;;;;;;;;4.17;59.41;99913.44;4429138;32;20049;-87
2021/12/12 10:51:22;;;;;;;;;;;;;;;4.11;59.40;99902.31;4428628;32;20021;-88
2021/12/12 10:53:56;;;;;;;;;;;;;;;4.30;59.42;99903.97;4428825;32;20008;-85
2021/12/12 10:56:34;;;;;;;;;;;;;;;4.24;59.41;99909.13;4441507;32;20034;-88
2021/12/12 10:59:00;;;;;;;;;;;;;;;4.09;59.40;99899.75;4441383;32;19962;-87
2021/12/12 11:01:30;;;;;;;;;;;;;;;4.19;59.40;99901.41;4428519;32;20001;-85
2021/12/12 11:04:01;;;;;;;;;;;;;;;4.19;59.40;99905.72;4441159;32;20037;-85
2021/12/12 11:06:28;;;;;;;;;;;;;;;4.19;59.40;99908.28;4440673;32;19989;-87
2021/12/12 11:09:02;;;;;;;;;;;;;;;4.17;59.41;99912.59;4430287;32;20012;-85
2021/12/12 11:11:47;;;;;;;;;;;;;;;4.19;59.41;99898.84;4429827;32;20102;-86
2021/12/12 11:14:21;;;;;;;;;;;;;;;4.30;59.42;99899.69;4429802;32;19978;-87
2021/12/12 11:16:54;;;;;;;;;;;;;;;4.20;59.42;99905.72;4442903;32;20020;-87
2021/12/12 11:19:34;;;;;;;;;;;;;;;4.14;59.41;99890.28;4429952;32;19990;-86
2021/12/12 11:22:01;;;;;;;;;;;;;;;4.13;59.41;99885.13;4429912;32;19997;-87
2021/12/12 11:24:31;;;;;;;;;;;;;;;3.96;59.39;99896.34;4430177;32;20771;-85
2021/12/12 11:27:01;;;;;;;;;;;;;;;4.07;59.40;99892.91;4430168;32;19969;-88
2021/12/12 11:29:27;;;;;;;;;;;;;;;4.16;59.41;99905.72;4443315;32;20993;-88
2021/12/12 11:31:55;;;;;;;;;;;;;;;4.05;59.40;99886.91;4430369;32;19997;-87
2021/12/12 11:34:23;;;;;;;;;;;;;;;4.12;59.40;99904.03;4430077;32;19945;-87
2021/12/12 11:37:11;;;;;;;;;;;;;;;4.10;59.40;99890.31;4430180;32;19997;-87
2021/12/12 11:39:49;;;;;;;;;;;;;;;4.13;59.41;99880.84;4428979;32;20088;-85
2021/12/12 11:42:27;;;;;;;;;;;;;;;4.26;59.41;99886.81;4440828;32;20334;-86
2021/12/12 11:45:01;;;;;;;;;;;;;;;4.32;59.42;99881.63;4441550;32;20048;-85
2021/12/12 11:47:35;;;;;;;;;;;;;;;4.33;59.41;99873.03;4441141;32;19992;-85
2021/12/12 11:50:00;;;;;;;;;;;;;;;4.24;59.41;99875.62;4441189;32;20056;-84
2021/12/12 11:52:40;;;;;;;;;;;;;;;4.12;59.42;99878.28;4440865;32;20039;-84
2021/12/12 11:55:08;;;;;;;;;;;;;;;3.93;59.39;99875.75;4441443;32;20715;-85
2021/12/12 11:57:52;;;;;;;;;;;;;;;4.07;59.40;99869.72;4428226;32;20003;-85
2021/12/12 12:00:20;;;;;;;;;;;;;;;4.10;59.40;99880.84;4428581;32;19997;-87
2021/12/12 12:03:05;;;;;;;;;;;;;;;4.07;59.40;99878.31;4428376;32;20041;-84
2021/12/12 12:05:30;;;;;;;;;;;;;;;4.13;59.41;99880.84;4441698;32;20036;-86
2021/12/12 12:08:01;;;;;;;;;;;;;;;4.06;59.41;99871.44;4456026;32;20297;-85
2021/12/12 12:10:36;;;;;;;;;;;;;;;4.10;59.41;99896.31;4441719;32;20013;-84
2021/12/12 12:13:17;;;;;;;;;;;;;;;4.25;59.41;99890.22;4429017;32;19992;-85
2021/12/12 12:15:46;;;;;;;;;;;;;;;4.29;59.42;99887.66;4455839;32;20265;-85
2021/12/12 12:18:31;;;;;;;;;;;;;;;4.46;59.42;99882.41;4441196;32;20342;-85
2021/12/12 12:21:11;;;;;;;;;;;;;;;4.32;59.41;99886.78;4455929;32;19977;-85
2021/12/12 12:29:27;;;;;;;;;;;;;;;4.13;59.41;99892.88;4444481;32;20072;-85
2021/12/12 12:32:15;;;;;;;;;;;;;;;4.10;59.40;99908.34;4456083;32;19989;-86
2021/12/12 12:34:49;;;;;;;;;;;;;;;4.08;59.40;99905.78;4432503;32;19977;-85
2021/12/12 12:37:33;;;;;;;;;;;;;;;4.20;59.41;99913.44;4455161;32;20353;-85
2021/12/12 12:40:17;;;;;;;;;;;;;;;4.21;59.41;99906.56;4455421;32;19969;-85
2021/12/12 12:43:01;;;;;;;;;;;;;;;4.15;59.41;99901.44;4441308;32;19986;-84
2021/12/12 12:45:45;;;;;;;;;;;;;;;4.12;59.42;99893.72;4454926;32;20349;-84
2021/12/12 12:48:10;;;;;;;;;;;;;;;3.79;59.39;99900.72;4441013;32;19992;-85
2021/12/12 12:50:39;;;;;;;;;;;;;;;3.81;59.39;99917.00;4441162;32;20336;-85
2021/12/12 12:53:20;;;;;;;;;;;;;;;3.74;59.38;99904.97;4441519;32;20082;-85
2021/12/12 12:55:50;;;;;;;;;;;;;;;3.83;59.38;99928.16;4455949;32;20345;-86
2021/12/12 12:58:18;;;;;;;;;;;;;;;3.97;59.41;99903.22;4441351;32;19973;-85
2021/12/12 13:00:44;;;;;;;;;;;;;;;3.76;59.38;99923.00;4441544;32;19981;-83
2021/12/12 13:03:16;;;;;;;;;;;;;;;3.87;59.39;99910.97;4428472;32;20008;-85
2021/12/12 13:05:50;;;;;;;;;;;;;;;3.88;59.39;99908.41;4440866;32;20532;-84
2021/12/12 13:08:35;;;;;;;;;;;;;;;3.75;59.38;99903.25;4428446;32;19988;-84
2021/12/12 13:11:01;;;;;;;;;;;;;;;3.94;59.39;99926.41;4441300;32;20044;-85
2021/12/12 13:13:29;;;;;;;;;;;;;;;4.06;59.41;99927.25;4428580;32;19985;-84
2021/12/12 13:16:14;;;;;;;;;;;;;;;4.12;59.40;99928.06;4428865;32;19996;-85
2021/12/12 13:18:57;;;;;;;;;;;;;;;4.07;59.40;99934.09;4440533;32;20767;-85
2021/12/12 13:21:34;;;;;;;;;;;;;;;4.16;59.41;99922.03;4441812;32;20308;-84
2021/12/12 13:24:35;;;;;;;;;;;;;;;4.18;59.41;99930.63;4427702;32;20331;-82
2021/12/12 13:27:21;;;;;;;;;;;;;;;4.14;59.41;99939.22;4392921;32;20053;-83
2021/12/12 13:30:03;;;;;;;;;;;;;;;4.10;59.40;99936.66;4437917;32;20360;-84
2021/12/12 13:32:35;;;;;;;;;;;;;;;4.14;59.41;99931.50;4440500;32;20663;-84
2021/12/12 13:35:13;;;;;;;;;;;;;;;4.14;59.41;99966.72;4428164;32;20484;-83